Time;durP1;ratioP1;P1;durP2;ratioP2;P2;SDS_P1;SDS_P2;PMS_P1;PMS_P2;Temp;Humidity;BMP_temperature;BMP_pressure;BME280_temperature;BME280_humidity;BME280_pressure;Samples;Min_cycle;Max_cycle;Signal;HPM_P1;HPM_P2
2022/11/12 00:02:08;;;;;;;21.07;15.53;;;9.80;99.90;;;;;;5063220;28;20242;-55
2022/11/12 00:04:57;;;;;;;20.83;15.80;;;9.80;99.90;;;;;;5054302;28;20366;-55
2022/11/12 00:07:44;;;;;;;17.90;14.77;;;9.80;99.90;;;;;;5067717;28;20242;-55
2022/11/12 00:10:32;;;;;;;19.13;15.33;;;9.80;99.90;;;;;;5062358;28;20244;-54
2022/11/12 00:13:19;;;;;;;17.33;13.97;;;9.80;99.90;;;;;;5056675;28;20239;-54
2022/11/12 00:16:07;;;;;;;16.67;12.80;;;9.80;99.90;;;;;;5053049;28;20242;-56
2022/11/12 00:18:54;;;;;;;16.73;13.77;;;9.80;99.90;;;;;;5059904;28;20231;-56
2022/11/12 00:21:42;;;;;;;18.07;14.10;;;9.80;99.90;;;;;;5055285;28;20614;-55
2022/11/12 00:24:30;;;;;;;17.97;12.57;;;9.70;99.90;;;;;;5072787;28;20325;-55
2022/11/12 00:27:17;;;;;;;14.33;12.57;;;9.80;99.90;;;;;;5073195;28;20225;-55
2022/11/12 00:30:05;;;;;;;15.47;12.13;;;9.80;99.90;;;;;;5052815;28;20279;-55
2022/11/12 00:32:52;;;;;;;17.17;12.67;;;9.70;99.90;;;;;;5052847;28;20317;-55
2022/11/12 00:35:39;;;;;;;11.63;10.10;;;9.70;99.90;;;;;;5053020;28;20227;-55
2022/11/12 00:38:30;;;;;;;13.53;10.77;;;9.80;99.90;;;;;;5052666;28;20304;-56
2022/11/12 00:41:16;;;;;;;16.23;12.17;;;9.80;99.90;;;;;;5052939;28;20330;-55
2022/11/12 00:44:03;;;;;;;14.03;11.47;;;9.70;99.90;;;;;;5052464;28;20242;-55
2022/11/12 00:46:49;;;;;;;13.53;11.20;;;9.70;99.90;;;;;;5055636;28;20587;-55
2022/11/12 00:49:36;;;;;;;14.33;11.30;;;9.70;99.90;;;;;;5061327;28;20231;-55
2022/11/12 00:52:23;;;;;;;13.03;11.33;;;9.80;99.90;;;;;;5053139;28;20574;-56
2022/11/12 00:55:10;;;;;;;14.13;11.43;;;9.70;99.90;;;;;;5076886;28;20234;-55
2022/11/12 00:57:59;;;;;;;12.83;10.97;;;9.80;99.90;;;;;;5074005;28;20594;-56
2022/11/12 01:00:45;;;;;;;13.37;11.43;;;9.80;99.90;;;;;;5056128;28;20255;-55
2022/11/12 01:03:32;;;;;;;14.27;11.60;;;9.70;99.90;;;;;;5056100;28;20325;-55
2022/11/12 01:06:21;;;;;;;14.77;12.10;;;9.70;99.90;;;;;;5056628;28;20338;-55
2022/11/12 01:09:07;;;;;;;13.57;11.17;;;9.70;99.90;;;;;;5056656;28;20226;-55
2022/11/12 01:11:55;;;;;;;16.13;12.00;;;9.70;99.90;;;;;;5056468;28;20281;-55
2022/11/12 01:14:42;;;;;;;14.80;11.10;;;9.70;99.90;;;;;;5059331;28;20224;-55
2022/11/12 01:17:28;;;;;;;13.20;11.80;;;9.70;99.90;;;;;;5061237;28;20234;-55
2022/11/12 01:20:15;;;;;;;14.03;10.67;;;9.70;99.90;;;;;;5048626;28;20230;-56
2022/11/12 01:23:02;;;;;;;14.53;11.03;;;9.70;99.90;;;;;;5071538;28;20261;-55
2022/11/12 01:25:48;;;;;;;13.77;11.57;;;9.70;99.90;;;;;;5075857;28;20234;-55
2022/11/12 01:28:36;;;;;;;11.97;9.73;;;9.70;99.90;;;;;;5068019;28;20238;-55
2022/11/12 01:31:25;;;;;;;14.93;11.77;;;9.70;99.90;;;;;;5055227;28;20761;-53
2022/11/12 01:34:11;;;;;;;12.07;10.40;;;9.70;99.90;;;;;;5052877;28;20230;-55
2022/11/12 01:36:58;;;;;;;12.70;11.37;;;9.70;99.90;;;;;;5056147;28;20227;-55
2022/11/12 01:39:44;;;;;;;13.70;11.30;;;9.80;99.90;;;;;;5055694;28;20243;-55
2022/11/12 01:42:32;;;;;;;14.40;10.83;;;9.70;99.90;;;;;;5057365;28;20282;-55
2022/11/12 01:45:22;;;;;;;14.13;11.47;;;9.70;99.90;;;;;;5049072;28;20234;-55
2022/11/12 01:48:26;;;;;;;11.67;10.47;;;9.70;99.90;;;;;;5055817;28;20239;-55
2022/11/12 01:51:15;;;;;;;12.03;10.37;;;9.70;99.90;;;;;;5048716;28;20284;-55
2022/11/12 01:54:07;;;;;;;15.03;11.10;;;9.60;99.90;;;;;;5075748;28;20222;-56
2022/11/12 01:56:55;;;;;;;12.87;10.73;;;9.60;99.90;;;;;;5075607;28;20270;-56
2022/11/12 01:59:45;;;;;;;13.27;10.57;;;9.60;99.90;;;;;;5058162;28;20234;-55
2022/11/12 02:02:34;;;;;;;12.13;10.17;;;9.50;99.90;;;;;;5054694;28;20243;-55
2022/11/12 02:05:22;;;;;;;13.53;10.60;;;9.40;99.90;;;;;;5055519;28;20285;-55
2022/11/12 02:08:11;;;;;;;12.93;9.77;;;9.40;99.90;;;;;;5055534;28;20777;-55
2022/11/12 02:10:58;;;;;;;12.10;10.80;;;9.30;99.90;;;;;;5055362;28;20242;-55
2022/11/12 02:13:58;;;;;;;15.30;10.83;;;9.30;99.90;;;;;;5058185;28;20243;-55
2022/11/12 02:16:46;;;;;;;15.47;11.00;;;9.30;99.90;;;;;;5055065;28;20234;-55
2022/11/12 02:19:37;;;;;;;12.50;9.87;;;9.30;99.90;;;;;;5049975;28;20227;-56
2022/11/12 02:22:25;;;;;;;13.97;10.70;;;9.20;99.90;;;;;;5055059;28;20237;-54
2022/11/12 02:25:13;;;;;;;12.27;10.40;;;9.20;99.90;;;;;;5075098;28;20586;-55
2022/11/12 02:28:02;;;;;;;13.10;10.83;;;9.20;99.90;;;;;;5067704;28;20365;-55
2022/11/12 02:30:49;;;;;;;13.50;10.70;;;9.20;99.90;;;;;;5054610;28;20330;-55
2022/11/12 02:33:36;;;;;;;13.80;10.60;;;9.10;99.90;;;;;;5054830;28;20226;-55
2022/11/12 02:36:23;;;;;;;13.83;11.20;;;9.10;99.90;;;;;;5054936;28;20227;-55
2022/11/12 02:39:11;;;;;;;11.73;10.33;;;9.10;99.90;;;;;;5054898;28;20235;-55
2022/11/12 02:41:58;;;;;;;15.30;11.20;;;9.00;99.90;;;;;;5054852;28;20227;-54
2022/11/12 02:44:45;;;;;;;13.17;10.80;;;9.00;99.90;;;;;;5057517;28;20267;-55
2022/11/12 02:47:32;;;;;;;13.20;10.53;;;9.00;99.90;;;;;;5054466;28;20277;-54
2022/11/12 02:50:18;;;;;;;13.93;10.40;;;8.90;99.90;;;;;;5054721;28;20792;-54
2022/11/12 02:53:05;;;;;;;13.33;11.50;;;8.90;99.90;;;;;;5054375;28;20310;-55
2022/11/12 02:55:53;;;;;;;12.47;10.93;;;8.90;99.90;;;;;;5054517;28;20699;-55
2022/11/12 02:58:40;;;;;;;17.00;11.77;;;8.80;99.90;;;;;;5057172;28;20580;-55
2022/11/12 03:01:26;;;;;;;14.90;11.53;;;8.80;99.90;;;;;;5048847;28;20246;-56
2022/11/12 03:04:13;;;;;;;13.80;11.10;;;8.90;99.90;;;;;;5034415;28;20240;-55
2022/11/12 03:06:59;;;;;;;13.40;10.50;;;8.80;99.90;;;;;;5034460;28;20588;-55
2022/11/12 03:09:45;;;;;;;12.63;10.83;;;8.80;99.90;;;;;;5036830;28;20316;-55
2022/11/12 03:12:33;;;;;;;15.90;11.20;;;8.80;99.90;;;;;;5055302;28;20276;-54
2022/11/12 03:15:20;;;;;;;13.60;11.53;;;8.80;99.90;;;;;;5047375;28;20306;-55
2022/11/12 03:18:06;;;;;;;14.63;11.17;;;8.80;99.90;;;;;;5054209;28;20717;-55
2022/11/12 03:20:53;;;;;;;12.30;11.00;;;8.80;99.90;;;;;;5053973;28;20698;-55
2022/11/12 03:23:40;;;;;;;13.27;10.57;;;8.70;99.90;;;;;;5053953;28;20227;-55
2022/11/12 03:26:26;;;;;;;12.37;10.83;;;8.70;99.90;;;;;;5053600;28;20718;-55
2022/11/12 03:29:21;;;;;;;13.57;11.13;;;8.60;99.90;;;;;;5068158;28;20226;-53
2022/11/12 03:32:07;;;;;;;13.30;11.43;;;8.60;99.90;;;;;;5073433;28;20241;-55
2022/11/12 03:34:54;;;;;;;14.27;11.17;;;8.70;99.90;;;;;;5074011;28;20269;-55
2022/11/12 03:37:41;;;;;;;14.80;12.07;;;8.60;99.90;;;;;;5073063;28;20242;-54
2022/11/12 03:40:28;;;;;;;15.40;11.40;;;8.50;99.90;;;;;;5065901;28;20234;-54
2022/11/12 03:43:15;;;;;;;13.57;11.70;;;8.50;99.90;;;;;;5049603;28;20742;-55
2022/11/12 03:46:03;;;;;;;13.17;10.97;;;8.50;99.90;;;;;;5053279;28;20285;-54
2022/11/12 03:48:49;;;;;;;15.13;12.37;;;8.50;99.90;;;;;;5053046;28;20725;-53
2022/11/12 03:51:36;;;;;;;14.33;11.40;;;8.50;99.90;;;;;;5053027;28;20239;-55
2022/11/12 03:54:22;;;;;;;13.67;11.50;;;8.50;99.90;;;;;;5053433;28;20277;-55
2022/11/12 03:57:08;;;;;;;14.80;10.77;;;8.50;99.90;;;;;;5055193;28;20234;-55
2022/11/12 03:59:55;;;;;;;13.70;10.80;;;8.40;99.90;;;;;;5073222;28;20637;-55
2022/11/12 04:02:43;;;;;;;12.47;10.83;;;8.40;99.90;;;;;;5072415;28;20234;-55
2022/11/12 04:08:36;;;;;;;12.97;10.70;;;8.30;99.90;;;;;;5073288;28;20230;-55
2022/11/12 04:11:23;;;;;;;13.97;10.67;;;8.30;99.90;;;;;;5058140;28;20312;-55
2022/11/12 04:14:09;;;;;;;13.13;10.17;;;8.30;99.90;;;;;;5056250;28;20235;-53
2022/11/12 04:23:06;;;;;;;12.37;10.20;;;8.20;99.90;;;;;;5053570;28;20247;-54
2022/11/12 04:32:00;;;;;;;15.27;10.40;;;8.10;99.90;;;;;;5072510;28;20241;-54
2022/11/12 04:34:47;;;;;;;13.30;10.40;;;8.10;99.90;;;;;;5072868;28;20218;-54
2022/11/12 04:37:45;;;;;;;12.37;10.03;;;8.00;99.90;;;;;;5072888;28;20586;-55
2022/11/12 04:46:40;;;;;;;11.10;10.00;;;8.00;99.90;;;;;;5048710;28;20257;-55
2022/11/12 04:49:27;;;;;;;10.93;9.00;;;7.90;99.90;;;;;;5058392;28;20584;-53
2022/11/12 04:52:14;;;;;;;11.97;9.80;;;7.90;99.90;;;;;;5032848;28;20278;-53
2022/11/12 04:55:01;;;;;;;14.43;10.57;;;7.90;99.90;;;;;;5033043;28;20228;-55
2022/11/12 04:57:48;;;;;;;11.40;9.20;;;7.80;99.90;;;;;;5046470;28;20235;-55
2022/11/12 05:00:35;;;;;;;12.37;9.03;;;7.80;99.90;;;;;;5072456;28;20292;-54
2022/11/12 05:03:21;;;;;;;10.50;9.40;;;7.70;99.90;;;;;;5062164;28;20309;-54
2022/11/12 05:06:50;;;;;;;12.83;9.47;;;7.70;99.90;;;;;;5052150;28;20354;-53
2022/11/12 05:09:15;;;;;;;12.03;9.67;;;7.70;99.90;;;;;;5032810;28;20219;-53
2022/11/12 05:12:03;;;;;;;12.33;9.23;;;7.70;99.90;;;;;;5051521;28;20234;-54
2022/11/12 05:14:50;;;;;;;11.10;9.33;;;7.60;99.90;;;;;;5055227;28;20628;-53
2022/11/12 05:17:36;;;;;;;11.30;9.60;;;7.60;99.90;;;;;;5052452;28;20587;-54
2022/11/12 05:20:23;;;;;;;10.23;9.07;;;7.60;99.90;;;;;;5052449;28;20222;-54
2022/11/12 05:23:09;;;;;;;11.50;9.50;;;7.60;99.90;;;;;;5052857;28;20235;-54
2022/11/12 05:25:55;;;;;;;9.93;8.90;;;7.50;99.90;;;;;;5052315;28;20254;-54
2022/11/12 05:28:43;;;;;;;13.20;9.17;;;7.50;99.90;;;;;;5066345;28;20226;-55
2022/11/12 05:31:30;;;;;;;11.37;9.33;;;7.50;99.90;;;;;;5072220;28;20749;-52
2022/11/12 05:34:17;;;;;;;11.47;9.60;;;7.50;99.90;;;;;;5076257;28;20269;-52
2022/11/12 05:37:09;;;;;;;9.40;7.70;;;7.40;99.90;;;;;;5075964;28;20730;-55
2022/11/12 05:39:55;;;;;;;12.20;9.37;;;7.40;99.90;;;;;;5072605;28;20314;-54
2022/11/12 05:42:42;;;;;;;11.80;9.57;;;7.40;99.90;;;;;;5059423;28;20755;-53
2022/11/12 05:45:30;;;;;;;10.33;8.97;;;7.40;99.90;;;;;;5055800;28;20226;-54
2022/11/12 05:48:17;;;;;;;11.63;9.00;;;7.40;99.90;;;;;;5059064;28;20270;-52
2022/11/12 05:51:12;;;;;;;11.30;9.03;;;7.40;99.90;;;;;;5055898;28;20235;-52
2022/11/12 05:54:00;;;;;;;11.40;8.97;;;7.40;99.90;;;;;;5056117;28;20297;-54
2022/11/12 05:56:47;;;;;;;10.83;9.73;;;7.30;99.90;;;;;;5055717;28;21294;-55
2022/11/12 05:59:33;;;;;;;12.17;8.97;;;7.30;99.90;;;;;;5055822;28;20614;-55
2022/11/12 06:02:21;;;;;;;14.50;9.57;;;7.20;99.90;;;;;;5055227;28;20489;-54
2022/11/12 06:05:09;;;;;;;10.93;9.77;;;7.20;99.90;;;;;;5055570;28;20238;-52
2022/11/12 06:07:55;;;;;;;11.33;9.53;;;7.20;99.90;;;;;;5055682;28;20588;-53
2022/11/12 06:10:41;;;;;;;13.53;10.10;;;7.20;99.90;;;;;;5055607;28;20235;-54
2022/11/12 06:13:28;;;;;;;12.23;10.93;;;7.20;99.90;;;;;;5059346;28;20302;-53
2022/11/12 06:16:14;;;;;;;12.60;10.60;;;7.20;99.90;;;;;;5055541;28;20301;-53
2022/11/12 06:19:03;;;;;;;10.67;9.57;;;7.20;99.90;;;;;;5055327;28;20317;-54
2022/11/12 06:21:50;;;;;;;12.37;10.80;;;7.20;99.90;;;;;;5054959;28;20240;-52
2022/11/12 06:24:37;;;;;;;13.93;12.43;;;7.10;99.90;;;;;;5054837;28;20277;-54
2022/11/12 06:27:23;;;;;;;12.13;10.80;;;7.10;99.90;;;;;;5055293;28;20230;-54
2022/11/12 06:30:10;;;;;;;14.57;11.40;;;7.10;99.90;;;;;;5055399;28;20254;-53
2022/11/12 06:32:57;;;;;;;13.23;11.13;;;7.10;99.90;;;;;;5055167;28;20270;-54
2022/11/12 06:35:45;;;;;;;14.03;11.90;;;7.10;99.90;;;;;;5054776;28;20536;-53
2022/11/12 06:38:33;;;;;;;15.20;13.27;;;7.00;99.90;;;;;;5054848;28;20270;-54
2022/11/12 06:41:20;;;;;;;15.07;12.17;;;7.00;99.90;;;;;;5054820;28;20392;-53
2022/11/12 06:44:06;;;;;;;14.63;13.03;;;7.00;99.90;;;;;;5060152;28;20237;-54
2022/11/12 06:46:53;;;;;;;14.37;12.87;;;7.00;99.90;;;;;;5063240;28;20679;-53
2022/11/12 06:49:39;;;;;;;16.60;12.63;;;7.00;99.90;;;;;;5058676;28;20229;-53
2022/11/12 06:52:27;;;;;;;19.67;14.33;;;7.00;99.90;;;;;;5048331;28;20464;-54
2022/11/12 06:55:14;;;;;;;15.23;13.63;;;6.90;99.90;;;;;;5034721;28;20458;-53
2022/11/12 06:58:00;;;;;;;18.10;14.63;;;7.00;99.90;;;;;;5035035;28;20738;-53
2022/11/12 07:00:47;;;;;;;16.37;14.03;;;6.90;99.90;;;;;;5048763;28;20251;-55
2022/11/12 07:03:33;;;;;;;17.53;14.60;;;6.90;99.90;;;;;;5049508;28;20242;-53
2022/11/12 07:06:20;;;;;;;17.07;15.27;;;6.90;99.90;;;;;;5043311;28;20509;-53
2022/11/12 07:09:08;;;;;;;16.33;14.53;;;6.90;99.90;;;;;;5054628;28;20536;-54
2022/11/12 07:11:55;;;;;;;17.63;15.37;;;6.90;99.90;;;;;;5054362;28;20239;-54
2022/11/12 07:14:41;;;;;;;17.00;14.97;;;6.90;99.90;;;;;;5057455;28;20227;-55
2022/11/12 07:17:28;;;;;;;18.00;13.67;;;6.90;99.90;;;;;;5055631;28;20292;-52
2022/11/12 07:20:14;;;;;;;14.97;13.47;;;6.90;99.90;;;;;;5046542;28;20504;-55
2022/11/12 07:23:01;;;;;;;16.43;13.93;;;6.80;99.90;;;;;;5054342;28;20709;-55
2022/11/12 07:25:55;;;;;;;16.60;14.67;;;6.90;99.90;;;;;;5053902;28;20553;-54
2022/11/12 07:28:42;;;;;;;16.43;14.23;;;6.80;99.90;;;;;;5068926;28;20293;-53
2022/11/12 07:31:29;;;;;;;19.03;15.53;;;6.80;99.90;;;;;;5073661;28;20477;-55
2022/11/12 07:34:15;;;;;;;15.67;13.97;;;6.90;99.90;;;;;;5053765;28;20281;-54
2022/11/12 07:37:02;;;;;;;13.17;11.80;;;6.90;99.90;;;;;;5063336;28;20599;-53
2022/11/12 07:39:49;;;;;;;14.23;11.33;;;6.90;99.90;;;;;;5073688;28;20230;-54
2022/11/12 07:42:37;;;;;;;16.10;12.70;;;6.90;99.90;;;;;;5073568;28;20276;-53
2022/11/12 07:45:24;;;;;;;14.50;13.00;;;7.00;99.90;;;;;;5047544;28;20234;-55
2022/11/12 07:48:10;;;;;;;13.13;11.77;;;7.00;99.90;;;;;;5061883;28;20592;-54
2022/11/12 07:51:01;;;;;;;13.53;11.83;;;7.10;99.90;;;;;;5053392;28;20599;-55
2022/11/12 07:53:49;;;;;;;12.97;11.67;;;7.20;99.90;;;;;;5053493;28;20274;-55
2022/11/12 07:56:41;;;;;;;12.30;11.00;;;7.30;99.90;;;;;;5053478;28;20454;-55
2022/11/12 07:59:29;;;;;;;11.97;10.70;;;7.50;99.90;;;;;;5053276;28;20223;-53
2022/11/12 08:02:16;;;;;;;16.43;12.80;;;7.60;99.90;;;;;;5053806;28;20353;-54
2022/11/12 08:05:02;;;;;;;12.77;11.27;;;7.70;99.90;;;;;;5053571;28;20305;-54
2022/11/12 08:07:55;;;;;;;13.53;11.63;;;7.80;99.90;;;;;;5063798;28;20231;-53
2022/11/12 08:10:42;;;;;;;14.43;11.77;;;7.90;99.90;;;;;;5060886;28;20631;-55
2022/11/12 08:13:29;;;;;;;12.60;11.30;;;8.10;99.90;;;;;;5062815;28;20234;-54
2022/11/12 08:16:17;;;;;;;12.20;10.37;;;8.20;99.90;;;;;;5063757;28;20231;-54
2022/11/12 08:19:03;;;;;;;12.93;11.33;;;8.30;99.90;;;;;;5051364;28;20780;-55
2022/11/12 08:21:50;;;;;;;14.47;10.63;;;8.40;99.90;;;;;;5050603;28;20283;-54
2022/11/12 08:24:37;;;;;;;12.17;10.93;;;8.50;99.90;;;;;;5059965;28;20234;-54
2022/11/12 08:27:23;;;;;;;12.10;10.80;;;8.60;99.90;;;;;;5052773;28;20269;-54
2022/11/12 08:30:11;;;;;;;11.10;10.00;;;8.70;99.90;;;;;;5067933;28;20745;-55
2022/11/12 08:33:00;;;;;;;12.80;10.47;;;8.80;99.90;;;;;;5044448;28;20321;-55
2022/11/12 08:35:47;;;;;;;11.70;10.30;;;9.00;99.90;;;;;;5048337;28;20236;-54
2022/11/12 08:38:34;;;;;;;11.97;10.73;;;9.10;99.90;;;;;;5033068;28;20616;-55
2022/11/12 08:41:20;;;;;;;13.60;10.27;;;9.40;99.90;;;;;;5033170;28;20404;-54
2022/11/12 08:44:07;;;;;;;12.43;11.13;;;9.50;99.90;;;;;;5050984;28;20222;-53
2022/11/12 08:46:54;;;;;;;11.67;10.47;;;9.70;99.90;;;;;;5061101;28;20234;-54
2022/11/12 08:49:42;;;;;;;12.37;11.07;;;9.80;99.90;;;;;;5059774;28;20304;-55
2022/11/12 08:52:33;;;;;;;12.07;10.83;;;10.00;99.90;;;;;;5057991;28;20231;-54
2022/11/12 08:55:20;;;;;;;12.77;11.30;;;10.10;99.90;;;;;;5061387;28;20273;-54
2022/11/12 08:58:07;;;;;;;12.80;10.87;;;10.30;99.90;;;;;;5061382;28;20311;-55
2022/11/12 09:00:54;;;;;;;12.13;10.73;;;10.40;99.90;;;;;;5052151;28;20613;-54
2022/11/12 09:03:41;;;;;;;11.10;10.00;;;10.50;99.90;;;;;;5052513;28;20326;-55
2022/11/12 09:06:29;;;;;;;11.67;10.47;;;10.50;99.90;;;;;;5052347;28;20293;-55
2022/11/12 09:09:16;;;;;;;11.20;10.10;;;10.60;99.90;;;;;;5056531;28;20285;-53
2022/11/12 09:12:02;;;;;;;12.30;10.73;;;10.80;99.90;;;;;;5055880;28;20310;-55
2022/11/12 09:15:00;;;;;;;11.67;10.53;;;10.90;99.90;;;;;;5054773;28;20607;-54
2022/11/12 09:18:10;;;;;;;11.57;10.37;;;11.10;99.90;;;;;;5063363;28;20268;-54
2022/11/12 09:21:01;;;;;;;11.23;10.13;;;11.30;99.90;;;;;;5056085;28;20235;-55
2022/11/12 09:23:49;;;;;;;10.40;9.27;;;11.50;99.90;;;;;;5056343;28;20227;-55
2022/11/12 09:26:36;;;;;;;11.03;9.90;;;11.70;99.90;;;;;;5065789;28;20230;-55
2022/11/12 09:29:22;;;;;;;11.37;10.23;;;11.80;99.90;;;;;;5071528;28;20722;-56
2022/11/12 09:32:09;;;;;;;11.37;10.23;;;12.20;99.90;;;;;;5066360;28;20239;-56
2022/11/12 09:34:55;;;;;;;11.10;9.53;;;12.30;99.90;;;;;;5054675;28;20230;-53
2022/11/12 09:37:42;;;;;;;10.23;9.20;;;12.30;99.90;;;;;;5054040;28;20232;-55
2022/11/12 09:40:41;;;;;;;11.17;9.80;;;12.30;99.90;;;;;;5035995;28;20235;-54
2022/11/12 09:43:31;;;;;;;11.30;9.83;;;12.50;99.90;;;;;;5046958;28;20603;-55
2022/11/12 09:46:39;;;;;;;11.73;10.53;;;12.70;99.90;;;;;;5056132;28;20270;-55
2022/11/12 09:49:31;;;;;;;11.33;9.80;;;12.80;99.90;;;;;;5049502;28;20248;-55
2022/11/12 09:52:23;;;;;;;11.10;10.10;;;13.00;99.90;;;;;;5035858;28;20707;-53
2022/11/12 09:55:17;;;;;;;13.53;10.77;;;13.10;99.90;;;;;;5036014;28;20230;-56
2022/11/12 09:58:11;;;;;;;11.43;10.07;;;13.20;99.90;;;;;;5048766;28;20283;-55
2022/11/12 10:01:03;;;;;;;10.67;9.57;;;13.40;99.90;;;;;;5064148;28;20239;-55
2022/11/12 10:03:57;;;;;;;11.30;10.10;;;13.50;99.90;;;;;;5065991;28;20240;-56
2022/11/12 10:06:49;;;;;;;10.63;9.53;;;13.60;99.90;;;;;;5068948;28;20236;-55
2022/11/12 10:09:45;;;;;;;12.57;10.20;;;13.60;99.90;;;;;;5052944;28;20225;-55
2022/11/12 10:12:43;;;;;;;10.37;9.37;;;13.80;99.90;;;;;;5062696;28;20771;-55
2022/11/12 10:18:57;;;;;;;11.37;9.87;;;14.00;99.90;;;;;;5055605;28;20237;-55
2022/11/12 10:21:55;;;;;;;10.10;8.93;;;14.20;99.90;;;;;;5057631;28;20257;-55
2022/11/12 10:24:42;;;;;;;10.57;9.30;;;14.30;99.90;;;;;;5058605;28;20221;-55
2022/11/12 10:27:38;;;;;;;11.00;9.60;;;14.40;99.90;;;;;;5068186;28;20596;-55
2022/11/12 10:30:25;;;;;;;11.17;9.97;;;14.30;99.90;;;;;;5072516;28;20235;-56
2022/11/12 10:33:15;;;;;;;12.50;9.37;;;14.30;99.90;;;;;;5046958;28;20242;-55
2022/11/12 10:36:17;;;;;;;12.53;9.13;;;14.40;99.90;;;;;;5055168;28;20233;-56
2022/11/12 10:39:03;;;;;;;10.63;9.20;;;14.50;99.90;;;;;;5055298;28;20740;-54
2022/11/12 10:42:02;;;;;;;10.17;9.17;;;14.70;99.90;;;;;;5055301;28;20246;-55
2022/11/12 10:44:50;;;;;;;11.50;9.73;;;14.70;99.90;;;;;;5054674;28;20234;-56
2022/11/12 10:47:41;;;;;;;10.83;9.73;;;14.80;99.90;;;;;;5071766;28;20234;-55
2022/11/12 10:50:34;;;;;;;12.97;10.27;;;14.80;99.90;;;;;;5062302;28;20233;-54
2022/11/12 10:53:33;;;;;;;12.77;10.30;;;14.90;99.90;;;;;;5061000;28;20310;-56
2022/11/12 10:56:26;;;;;;;13.30;10.23;;;15.00;99.90;;;;;;5064354;28;20272;-54
2022/11/12 10:59:18;;;;;;;13.07;10.37;;;15.20;99.90;;;;;;5074733;28;20241;-55
2022/11/12 11:02:17;;;;;;;12.17;10.37;;;15.40;99.90;;;;;;5063871;28;20258;-55
2022/11/12 11:05:32;;;;;;;11.87;9.63;;;15.50;99.90;;;;;;5053966;28;20243;-55
2022/11/12 11:08:33;;;;;;;13.27;10.63;;;15.60;99.90;;;;;;5062720;28;20615;-56
2022/11/12 11:11:27;;;;;;;15.40;10.87;;;15.70;99.90;;;;;;5054513;28;20304;-55
2022/11/12 11:14:32;;;;;;;13.50;10.97;;;15.90;99.90;;;;;;5057670;28;20357;-56
2022/11/12 11:17:19;;;;;;;12.50;10.80;;;16.10;99.90;;;;;;5038270;28;20587;-54
2022/11/12 11:20:15;;;;;;;11.90;10.67;;;16.10;99.90;;;;;;5054212;28;20234;-55
2022/11/12 11:23:11;;;;;;;11.17;9.70;;;16.20;99.90;;;;;;5053961;28;20258;-57
2022/11/12 11:26:10;;;;;;;11.33;9.90;;;16.10;99.90;;;;;;5034587;28;20722;-56
2022/11/12 11:29:08;;;;;;;13.93;10.57;;;16.00;99.90;;;;;;5067713;28;20715;-57
2022/11/12 11:32:00;;;;;;;11.33;10.17;;;16.00;99.90;;;;;;5063494;28;20656;-56
2022/11/12 11:34:57;;;;;;;10.77;9.57;;;15.80;99.90;;;;;;5053795;28;20318;-56
2022/11/12 11:37:53;;;;;;;14.10;10.23;;;15.70;99.90;;;;;;5054020;28;20227;-57
2022/11/12 11:40:57;;;;;;;14.27;11.43;;;15.60;99.90;;;;;;5052684;28;20226;-56
2022/11/12 11:43:57;;;;;;;11.73;10.53;;;15.50;99.90;;;;;;5053219;28;20234;-56
2022/11/12 11:46:52;;;;;;;12.57;10.93;;;15.40;99.90;;;;;;5050133;28;20267;-56
2022/11/12 11:50:09;;;;;;;13.37;11.17;;;15.30;99.90;;;;;;5049418;28;20305;-55
2022/11/12 11:53:06;;;;;;;11.77;10.10;;;15.20;99.90;;;;;;5033856;28;20634;-56
2022/11/12 11:55:58;;;;;;;11.60;10.50;;;15.10;99.90;;;;;;5034960;28;20318;-55
2022/11/12 11:59:01;;;;;;;13.07;9.73;;;15.10;99.90;;;;;;5059961;28;20245;-56
2022/11/12 12:02:01;;;;;;;12.30;9.37;;;14.90;99.90;;;;;;5033071;28;20246;-54
2022/11/12 12:04:51;;;;;;;13.23;9.63;;;14.70;99.90;;;;;;5033342;28;20244;-56
2022/11/12 12:07:46;;;;;;;11.60;9.33;;;14.60;99.90;;;;;;5033561;28;20715;-56
2022/11/12 12:10:48;;;;;;;11.63;9.30;;;14.40;99.90;;;;;;5033076;28;20289;-56
2022/11/12 12:14:09;;;;;;;11.07;9.70;;;14.20;99.90;;;;;;5053139;28;20250;-56
2022/11/12 12:17:03;;;;;;;11.37;9.67;;;14.20;99.90;;;;;;5053689;28;20626;-56
2022/11/12 12:20:02;;;;;;;10.90;9.80;;;14.10;99.90;;;;;;5057532;28;20238;-56
2022/11/12 12:22:51;;;;;;;10.33;9.33;;;14.10;99.90;;;;;;5053167;28;20709;-56
2022/11/12 12:25:41;;;;;;;11.67;9.33;;;14.00;99.90;;;;;;5065842;28;20237;-56
2022/11/12 12:28:37;;;;;;;10.37;9.27;;;13.90;99.90;;;;;;5061595;28;20590;-57
2022/11/12 12:31:32;;;;;;;13.67;9.90;;;13.90;99.90;;;;;;5063904;28;20597;-57
2022/11/12 12:34:22;;;;;;;13.03;9.10;;;13.90;99.90;;;;;;5051549;28;20230;-57
2022/11/12 12:37:20;;;;;;;10.67;9.57;;;13.80;99.90;;;;;;5047140;28;20584;-54
2022/11/12 12:40:17;;;;;;;10.30;9.17;;;13.80;99.90;;;;;;5047398;28;20242;-55
2022/11/12 12:43:10;;;;;;;11.40;9.87;;;13.70;99.90;;;;;;5047414;28;20238;-56
2022/11/12 12:45:58;;;;;;;12.83;9.87;;;13.70;99.90;;;;;;5046924;28;20689;-56
2022/11/12 12:48:47;;;;;;;10.63;9.53;;;13.60;99.90;;;;;;5047245;28;20356;-56
2022/11/12 12:51:34;;;;;;;10.60;9.50;;;13.60;99.90;;;;;;5047465;28;20297;-56
2022/11/12 12:54:56;;;;;;;13.63;8.90;;;13.50;99.90;;;;;;5047633;28;20331;-56
2022/11/12 12:57:43;;;;;;;10.57;9.43;;;13.50;99.90;;;;;;5047466;28;20301;-56
2022/11/12 13:00:36;;;;;;;12.60;9.90;;;13.50;99.90;;;;;;5046621;28;20778;-56
2022/11/12 13:03:53;;;;;;;12.77;9.27;;;13.40;99.90;;;;;;5047438;28;20308;-56
2022/11/12 13:06:51;;;;;;;10.20;9.07;;;13.40;99.90;;;;;;5046932;28;20284;-56
2022/11/12 13:09:38;;;;;;;10.73;9.07;;;13.30;99.90;;;;;;5046681;28;20799;-56
2022/11/12 13:13:02;;;;;;;10.37;8.70;;;13.30;99.90;;;;;;5047032;28;20795;-56
2022/11/12 13:15:52;;;;;;;10.73;8.97;;;13.30;99.90;;;;;;5046119;28;20280;-56
2022/11/12 13:19:00;;;;;;;12.20;9.17;;;13.40;99.90;;;;;;5046780;28;20345;-57
2022/11/12 13:21:47;;;;;;;11.53;9.17;;;13.40;99.90;;;;;;5047093;28;20584;-58
2022/11/12 13:25:24;;;;;;;10.60;9.47;;;13.30;99.90;;;;;;5046572;28;20225;-57
2022/11/12 13:28:13;;;;;;;11.10;8.63;;;13.20;99.90;;;;;;5045167;28;20269;-55
2022/11/12 13:31:02;;;;;;;12.73;9.80;;;13.20;99.90;;;;;;5044875;28;20284;-56
2022/11/12 13:33:49;;;;;;;10.43;9.17;;;13.20;99.90;;;;;;5046061;28;20285;-56
2022/11/12 13:36:37;;;;;;;11.03;9.83;;;13.10;99.90;;;;;;5046390;28;20320;-56
2022/11/12 13:39:23;;;;;;;11.67;9.83;;;13.10;99.90;;;;;;5046866;28;20233;-56
2022/11/12 13:45:21;;;;;;;11.50;9.67;;;13.10;99.90;;;;;;5047022;28;20229;-57
2022/11/12 13:48:11;;;;;;;10.33;8.60;;;13.00;99.90;;;;;;5046629;28;20246;-56
2022/11/12 13:51:02;;;;;;;11.23;9.20;;;12.90;99.90;;;;;;5047073;28;20246;-56
2022/11/12 13:53:49;;;;;;;12.00;9.47;;;12.90;99.90;;;;;;5049410;28;20234;-56
2022/11/12 13:56:37;;;;;;;12.00;8.83;;;13.00;99.90;;;;;;5049758;28;20234;-56
2022/11/12 13:59:26;;;;;;;11.80;9.10;;;13.00;99.90;;;;;;5050255;28;20802;-56
2022/11/12 14:02:22;;;;;;;11.40;9.00;;;12.90;99.90;;;;;;5049998;28;20240;-56
2022/11/12 14:05:17;;;;;;;14.23;8.80;;;12.90;99.90;;;;;;5049662;28;20245;-56
2022/11/12 14:08:20;;;;;;;11.90;9.10;;;12.90;99.90;;;;;;5050162;28;20238;-56
2022/11/12 14:11:44;;;;;;;10.33;9.13;;;12.90;99.90;;;;;;5050016;28;20234;-56
2022/11/12 14:14:49;;;;;;;12.33;8.67;;;12.90;99.90;;;;;;5049915;28;20684;-54
2022/11/12 14:17:42;;;;;;;11.00;9.00;;;12.90;99.90;;;;;;5049308;28;20250;-57
2022/11/12 14:20:35;;;;;;;10.57;9.30;;;12.80;99.90;;;;;;5049649;28;21011;-55
2022/11/12 14:23:22;;;;;;;10.00;8.23;;;12.80;99.90;;;;;;5049340;28;20225;-54
2022/11/12 14:26:13;;;;;;;10.73;8.10;;;12.80;99.90;;;;;;5049838;28;20732;-56
2022/11/12 14:29:01;;;;;;;10.03;8.40;;;12.70;99.90;;;;;;5050811;28;20594;-56
2022/11/12 14:31:47;;;;;;;11.95;8.80;;;12.70;99.90;;;;;;5048324;28;20941;-57
2022/11/12 14:34:34;;;;;;;10.27;8.50;;;13.00;99.90;;;;;;5048630;28;20581;-56
2022/11/12 14:37:35;;;;;;;11.03;8.53;;;13.10;99.90;;;;;;5049960;28;20233;-56
2022/11/12 14:40:30;;;;;;;9.87;7.73;;;12.90;99.90;;;;;;5049771;28;20222;-56
2022/11/12 14:43:24;;;;;;;11.27;9.30;;;12.80;99.90;;;;;;5049774;28;20227;-56
2022/11/12 14:46:25;;;;;;;13.07;10.23;;;12.70;99.90;;;;;;5049835;28;20233;-56
2022/11/12 14:49:27;;;;;;;13.63;8.60;;;12.60;99.90;;;;;;5049230;28;20226;-56
2022/11/12 14:52:18;;;;;;;12.63;9.23;;;12.50;99.90;;;;;;5049496;28;20233;-54
2022/11/12 14:55:10;;;;;;;11.07;9.33;;;12.40;99.90;;;;;;5047520;28;20326;-57
2022/11/12 14:57:58;;;;;;;11.87;10.07;;;12.30;99.90;;;;;;5049230;28;20601;-56
2022/11/12 15:00:48;;;;;;;12.80;9.47;;;12.30;99.90;;;;;;5049085;28;20769;-55
2022/11/12 15:03:35;;;;;;;14.23;8.87;;;12.20;99.90;;;;;;5048212;28;20238;-59